sensor_id;sensor_type;location;lat;lon;timestamp;P1;durP1;ratioP1;P2;durP2;ratioP2
51006;SDS011;37034;47.886;-3.904;2023-02-01T00:01:43;22.35;;;4.68;;
51006;SDS011;37034;47.886;-3.904;2023-02-01T00:04:09;28.97;;;3.87;;
51006;SDS011;37034;47.886;-3.904;2023-02-01T00:06:34;28.03;;;4.43;;
51006;SDS011;37034;47.886;-3.904;2023-02-01T00:09:00;24.67;;;5.10;;
51006;SDS011;37034;47.886;-3.904;2023-02-01T00:11:26;20.13;;;5.73;;
51006;SDS011;37034;47.886;-3.904;2023-02-01T00:13:51;25.43;;;5.67;;
51006;SDS011;37034;47.886;-3.904;2023-02-01T00:16:18;27.00;;;5.07;;
51006;SDS011;37034;47.886;-3.904;2023-02-01T00:18:46;17.90;;;3.90;;
51006;SDS011;37034;47.886;-3.904;2023-02-01T00:21:13;19.38;;;5.03;;
51006;SDS011;37034;47.886;-3.904;2023-02-01T00:23:41;27.75;;;4.72;;
51006;SDS011;37034;47.886;-3.904;2023-02-01T00:26:10;23.83;;;5.28;;
51006;SDS011;37034;47.886;-3.904;2023-02-01T00:28:39;22.05;;;5.22;;
51006;SDS011;37034;47.886;-3.904;2023-02-01T00:31:05;28.10;;;6.83;;
51006;SDS011;37034;47.886;-3.904;2023-02-01T00:33:31;21.23;;;4.87;;
51006;SDS011;37034;47.886;-3.904;2023-02-01T00:35:57;30.00;;;7.20;;
51006;SDS011;37034;47.886;-3.904;2023-02-01T00:38:24;35.40;;;7.43;;
51006;SDS011;37034;47.886;-3.904;2023-02-01T00:40:52;24.38;;;5.43;;
51006;SDS011;37034;47.886;-3.904;2023-02-01T00:43:18;20.60;;;4.00;;
51006;SDS011;37034;47.886;-3.904;2023-02-01T00:45:47;23.93;;;4.13;;
51006;SDS011;37034;47.886;-3.904;2023-02-01T00:48:13;20.75;;;5.20;;
51006;SDS011;37034;47.886;-3.904;2023-02-01T00:50:42;25.13;;;5.10;;
51006;SDS011;37034;47.886;-3.904;2023-02-01T00:53:08;19.92;;;4.28;;
51006;SDS011;37034;47.886;-3.904;2023-02-01T00:55:34;19.05;;;4.47;;
51006;SDS011;37034;47.886;-3.904;2023-02-01T00:58:00;25.27;;;5.67;;
51006;SDS011;37034;47.886;-3.904;2023-02-01T01:00:26;18.57;;;3.30;;
51006;SDS011;37034;47.886;-3.904;2023-02-01T01:02:51;26.17;;;5.30;;
51006;SDS011;37034;47.886;-3.904;2023-02-01T01:05:18;22.23;;;4.03;;
51006;SDS011;37034;47.886;-3.904;2023-02-01T01:07:44;19.85;;;4.45;;
51006;SDS011;37034;47.886;-3.904;2023-02-01T01:10:09;20.87;;;4.43;;
51006;SDS011;37034;47.886;-3.904;2023-02-01T01:12:35;21.13;;;4.25;;
51006;SDS011;37034;47.886;-3.904;2023-02-01T01:15:01;22.73;;;4.57;;
51006;SDS011;37034;47.886;-3.904;2023-02-01T01:17:27;21.13;;;3.67;;
51006;SDS011;37034;47.886;-3.904;2023-02-01T01:19:53;17.23;;;4.33;;
51006;SDS011;37034;47.886;-3.904;2023-02-01T01:22:18;19.60;;;4.53;;
51006;SDS011;37034;47.886;-3.904;2023-02-01T01:24:44;15.77;;;3.70;;
51006;SDS011;37034;47.886;-3.904;2023-02-01T01:27:10;19.67;;;4.47;;
51006;SDS011;37034;47.886;-3.904;2023-02-01T01:29:35;20.63;;;3.63;;
51006;SDS011;37034;47.886;-3.904;2023-02-01T01:32:01;17.27;;;3.28;;
51006;SDS011;37034;47.886;-3.904;2023-02-01T01:34:27;23.00;;;4.07;;
51006;SDS011;37034;47.886;-3.904;2023-02-01T01:36:52;25.57;;;3.77;;
51006;SDS011;37034;47.886;-3.904;2023-02-01T01:39:18;18.87;;;2.97;;
51006;SDS011;37034;47.886;-3.904;2023-02-01T01:41:44;17.60;;;2.67;;
51006;SDS011;37034;47.886;-3.904;2023-02-01T01:47:13;21.20;;;4.05;;
51006;SDS011;37034;47.886;-3.904;2023-02-01T01:49:40;24.60;;;3.78;;
51006;SDS011;37034;47.886;-3.904;2023-02-01T01:52:06;20.55;;;4.38;;
51006;SDS011;37034;47.886;-3.904;2023-02-01T01:54:33;24.98;;;3.33;;
51006;SDS011;37034;47.886;-3.904;2023-02-01T01:57:06;15.23;;;3.45;;
51006;SDS011;37034;47.886;-3.904;2023-02-01T01:59:40;22.35;;;3.28;;
51006;SDS011;37034;47.886;-3.904;2023-02-01T02:02:08;21.38;;;3.30;;
51006;SDS011;37034;47.886;-3.904;2023-02-01T02:07:02;23.58;;;3.75;;
51006;SDS011;37034;47.886;-3.904;2023-02-01T02:09:30;19.60;;;4.07;;
51006;SDS011;37034;47.886;-3.904;2023-02-01T02:11:56;18.85;;;3.08;;
51006;SDS011;37034;47.886;-3.904;2023-02-01T02:14:22;22.27;;;4.17;;
51006;SDS011;37034;47.886;-3.904;2023-02-01T02:27:48;24.08;;;4.40;;
51006;SDS011;37034;47.886;-3.904;2023-02-01T02:41:15;20.55;;;3.20;;
51006;SDS011;37034;47.886;-3.904;2023-02-01T02:44:15;17.20;;;3.10;;
51006;SDS011;37034;47.886;-3.904;2023-02-01T02:47:16;21.40;;;3.42;;
51006;SDS011;37034;47.886;-3.904;2023-02-01T02:49:52;25.90;;;3.75;;
51006;SDS011;37034;47.886;-3.904;2023-02-01T02:52:43;24.45;;;3.90;;
51006;SDS011;37034;47.886;-3.904;2023-02-01T02:55:32;24.17;;;3.85;;
51006;SDS011;37034;47.886;-3.904;2023-02-01T02:58:02;30.15;;;3.83;;
51006;SDS011;37034;47.886;-3.904;2023-02-01T03:00:48;22.23;;;3.67;;
51006;SDS011;37034;47.886;-3.904;2023-02-01T03:03:36;18.90;;;3.50;;
51006;SDS011;37034;47.886;-3.904;2023-02-01T03:06:22;21.48;;;3.83;;
51006;SDS011;37034;47.886;-3.904;2023-02-01T03:11:14;27.00;;;4.25;;
51006;SDS011;37034;47.886;-3.904;2023-02-01T03:13:51;28.42;;;5.97;;
51006;SDS011;37034;47.886;-3.904;2023-02-01T03:27:02;32.83;;;4.90;;
51006;SDS011;37034;47.886;-3.904;2023-02-01T03:32:34;24.08;;;3.80;;
51006;SDS011;37034;47.886;-3.904;2023-02-01T03:35:25;22.60;;;3.78;;
51006;SDS011;37034;47.886;-3.904;2023-02-01T03:37:53;23.85;;;3.13;;
51006;SDS011;37034;47.886;-3.904;2023-02-01T03:40:24;22.77;;;3.67;;
51006;SDS011;37034;47.886;-3.904;2023-02-01T03:42:54;21.25;;;3.22;;
51006;SDS011;37034;47.886;-3.904;2023-02-01T03:45:28;21.90;;;3.40;;
51006;SDS011;37034;47.886;-3.904;2023-02-01T03:48:01;16.40;;;3.30;;
51006;SDS011;37034;47.886;-3.904;2023-02-01T03:50:29;26.67;;;3.25;;
51006;SDS011;37034;47.886;-3.904;2023-02-01T03:52:58;19.55;;;2.65;;
51006;SDS011;37034;47.886;-3.904;2023-02-01T03:55:27;30.42;;;5.28;;
51006;SDS011;37034;47.886;-3.904;2023-02-01T04:00:32;18.45;;;2.50;;
51006;SDS011;37034;47.886;-3.904;2023-02-01T04:02:57;22.60;;;3.13;;
51006;SDS011;37034;47.886;-3.904;2023-02-01T04:05:23;20.65;;;2.60;;
51006;SDS011;37034;47.886;-3.904;2023-02-01T04:07:49;23.90;;;3.30;;
51006;SDS011;37034;47.886;-3.904;2023-02-01T04:10:14;15.60;;;2.30;;
51006;SDS011;37034;47.886;-3.904;2023-02-01T04:12:41;22.38;;;3.35;;
51006;SDS011;37034;47.886;-3.904;2023-02-01T04:15:07;14.80;;;2.60;;
51006;SDS011;37034;47.886;-3.904;2023-02-01T04:17:33;22.20;;;3.03;;
51006;SDS011;37034;47.886;-3.904;2023-02-01T04:19:59;17.70;;;3.00;;
51006;SDS011;37034;47.886;-3.904;2023-02-01T04:22:24;32.30;;;4.23;;
51006;SDS011;37034;47.886;-3.904;2023-02-01T04:24:50;28.13;;;4.23;;
51006;SDS011;37034;47.886;-3.904;2023-02-01T04:27:16;22.83;;;2.70;;
51006;SDS011;37034;47.886;-3.904;2023-02-01T04:29:42;18.00;;;3.15;;
51006;SDS011;37034;47.886;-3.904;2023-02-01T04:32:10;18.10;;;3.28;;
51006;SDS011;37034;47.886;-3.904;2023-02-01T04:34:35;24.33;;;3.83;;
51006;SDS011;37034;47.886;-3.904;2023-02-01T04:37:01;17.33;;;2.83;;
51006;SDS011;37034;47.886;-3.904;2023-02-01T04:39:27;17.13;;;2.67;;
51006;SDS011;37034;47.886;-3.904;2023-02-01T04:41:53;21.15;;;2.75;;
51006;SDS011;37034;47.886;-3.904;2023-02-01T04:44:19;16.37;;;3.57;;
51006;SDS011;37034;47.886;-3.904;2023-02-01T04:46:45;19.77;;;2.80;;
51006;SDS011;37034;47.886;-3.904;2023-02-01T04:49:12;23.27;;;3.08;;
51006;SDS011;37034;47.886;-3.904;2023-02-01T04:54:04;28.98;;;4.45;;
51006;SDS011;37034;47.886;-3.904;2023-02-01T04:56:30;22.98;;;3.08;;
51006;SDS011;37034;47.886;-3.904;2023-02-01T04:58:56;15.05;;;2.13;;
51006;SDS011;37034;47.886;-3.904;2023-02-01T05:01:22;27.00;;;3.47;;
51006;SDS011;37034;47.886;-3.904;2023-02-01T05:03:49;19.25;;;2.90;;
51006;SDS011;37034;47.886;-3.904;2023-02-01T05:06:15;26.20;;;3.17;;
51006;SDS011;37034;47.886;-3.904;2023-02-01T05:08:41;17.60;;;2.30;;
51006;SDS011;37034;47.886;-3.904;2023-02-01T05:11:06;26.27;;;3.40;;
51006;SDS011;37034;47.886;-3.904;2023-02-01T05:13:52;23.35;;;2.88;;
51006;SDS011;37034;47.886;-3.904;2023-02-01T05:16:17;18.70;;;2.90;;
51006;SDS011;37034;47.886;-3.904;2023-02-01T05:18:43;22.27;;;3.27;;
51006;SDS011;37034;47.886;-3.904;2023-02-01T05:21:09;17.27;;;2.77;;
51006;SDS011;37034;47.886;-3.904;2023-02-01T05:23:34;20.10;;;3.30;;
51006;SDS011;37034;47.886;-3.904;2023-02-01T05:26:20;26.27;;;3.88;;
51006;SDS011;37034;47.886;-3.904;2023-02-01T05:28:46;28.23;;;3.67;;
51006;SDS011;37034;47.886;-3.904;2023-02-01T05:31:11;19.80;;;2.80;;
51006;SDS011;37034;47.886;-3.904;2023-02-01T05:33:37;15.37;;;2.00;;
51006;SDS011;37034;47.886;-3.904;2023-02-01T05:36:03;19.63;;;3.30;;
51006;SDS011;37034;47.886;-3.904;2023-02-01T05:38:29;21.25;;;2.35;;
51006;SDS011;37034;47.886;-3.904;2023-02-01T05:40:54;22.57;;;2.20;;
51006;SDS011;37034;47.886;-3.904;2023-02-01T05:43:21;19.15;;;2.10;;
51006;SDS011;37034;47.886;-3.904;2023-02-01T05:45:47;24.67;;;3.50;;
51006;SDS011;37034;47.886;-3.904;2023-02-01T05:48:12;21.80;;;3.80;;
51006;SDS011;37034;47.886;-3.904;2023-02-01T05:50:38;23.33;;;2.53;;
51006;SDS011;37034;47.886;-3.904;2023-02-01T05:53:04;17.20;;;2.47;;
51006;SDS011;37034;47.886;-3.904;2023-02-01T05:55:30;21.08;;;3.00;;
51006;SDS011;37034;47.886;-3.904;2023-02-01T05:57:56;23.10;;;3.57;;
51006;SDS011;37034;47.886;-3.904;2023-02-01T06:00:21;17.80;;;2.90;;
51006;SDS011;37034;47.886;-3.904;2023-02-01T06:02:47;32.85;;;4.13;;
51006;SDS011;37034;47.886;-3.904;2023-02-01T06:05:13;25.03;;;2.77;;
51006;SDS011;37034;47.886;-3.904;2023-02-01T06:07:39;21.07;;;2.57;;
51006;SDS011;37034;47.886;-3.904;2023-02-01T06:10:04;23.07;;;3.77;;
51006;SDS011;37034;47.886;-3.904;2023-02-01T06:14:57;22.38;;;3.88;;
51006;SDS011;37034;47.886;-3.904;2023-02-01T06:17:24;21.23;;;3.10;;
51006;SDS011;37034;47.886;-3.904;2023-02-01T06:19:50;25.27;;;2.65;;
51006;SDS011;37034;47.886;-3.904;2023-02-01T06:22:15;18.23;;;3.33;;
51006;SDS011;37034;47.886;-3.904;2023-02-01T06:24:41;18.02;;;3.10;;
51006;SDS011;37034;47.886;-3.904;2023-02-01T06:27:07;26.35;;;4.28;;
51006;SDS011;37034;47.886;-3.904;2023-02-01T06:32:00;18.25;;;2.58;;
51006;SDS011;37034;47.886;-3.904;2023-02-01T06:34:25;33.87;;;4.50;;
51006;SDS011;37034;47.886;-3.904;2023-02-01T06:36:51;24.70;;;2.83;;
51006;SDS011;37034;47.886;-3.904;2023-02-01T06:39:17;25.07;;;3.00;;
51006;SDS011;37034;47.886;-3.904;2023-02-01T06:41:45;28.33;;;4.35;;
51006;SDS011;37034;47.886;-3.904;2023-02-01T06:44:12;28.08;;;4.45;;
51006;SDS011;37034;47.886;-3.904;2023-02-01T06:46:38;22.80;;;3.63;;
51006;SDS011;37034;47.886;-3.904;2023-02-01T06:49:03;24.50;;;2.70;;
51006;SDS011;37034;47.886;-3.904;2023-02-01T06:51:29;19.67;;;3.27;;
51006;SDS011;37034;47.886;-3.904;2023-02-01T06:53:55;24.87;;;3.10;;
51006;SDS011;37034;47.886;-3.904;2023-02-01T06:56:21;27.02;;;3.55;;
51006;SDS011;37034;47.886;-3.904;2023-02-01T06:58:47;22.30;;;3.50;;
51006;SDS011;37034;47.886;-3.904;2023-02-01T07:01:13;16.60;;;2.95;;
51006;SDS011;37034;47.886;-3.904;2023-02-01T07:03:39;19.25;;;2.67;;
51006;SDS011;37034;47.886;-3.904;2023-02-01T07:06:06;25.20;;;3.20;;
51006;SDS011;37034;47.886;-3.904;2023-02-01T07:08:33;25.77;;;4.25;;
51006;SDS011;37034;47.886;-3.904;2023-02-01T07:11:07;23.77;;;3.17;;
51006;SDS011;37034;47.886;-3.904;2023-02-01T07:13:34;28.70;;;4.47;;
51006;SDS011;37034;47.886;-3.904;2023-02-01T07:16:01;28.70;;;3.63;;
51006;SDS011;37034;47.886;-3.904;2023-02-01T07:18:28;21.35;;;3.60;;
51006;SDS011;37034;47.886;-3.904;2023-02-01T07:20:55;26.08;;;4.25;;
51006;SDS011;37034;47.886;-3.904;2023-02-01T07:23:21;26.58;;;3.13;;
51006;SDS011;37034;47.886;-3.904;2023-02-01T07:25:47;28.65;;;4.75;;
51006;SDS011;37034;47.886;-3.904;2023-02-01T07:28:13;16.00;;;2.63;;
51006;SDS011;37034;47.886;-3.904;2023-02-01T07:30:39;19.50;;;3.65;;
51006;SDS011;37034;47.886;-3.904;2023-02-01T07:33:04;14.80;;;3.00;;
51006;SDS011;37034;47.886;-3.904;2023-02-01T07:35:32;25.48;;;4.78;;
51006;SDS011;37034;47.886;-3.904;2023-02-01T07:37:57;22.00;;;3.33;;
51006;SDS011;37034;47.886;-3.904;2023-02-01T07:40:23;16.65;;;4.05;;
51006;SDS011;37034;47.886;-3.904;2023-02-01T07:42:56;29.40;;;4.32;;
51006;SDS011;37034;47.886;-3.904;2023-02-01T07:45:22;18.42;;;3.70;;
51006;SDS011;37034;47.886;-3.904;2023-02-01T07:47:48;18.47;;;3.63;;
51006;SDS011;37034;47.886;-3.904;2023-02-01T07:50:16;23.02;;;3.20;;
51006;SDS011;37034;47.886;-3.904;2023-02-01T07:52:42;27.60;;;4.73;;
51006;SDS011;37034;47.886;-3.904;2023-02-01T07:55:08;22.73;;;4.10;;
51006;SDS011;37034;47.886;-3.904;2023-02-01T07:57:34;28.73;;;3.72;;
51006;SDS011;37034;47.886;-3.904;2023-02-01T07:59:59;28.67;;;4.23;;
51006;SDS011;37034;47.886;-3.904;2023-02-01T08:02:56;22.17;;;3.53;;
51006;SDS011;37034;47.886;-3.904;2023-02-01T08:05:23;23.95;;;3.50;;
51006;SDS011;37034;47.886;-3.904;2023-02-01T08:07:49;19.57;;;3.87;;
51006;SDS011;37034;47.886;-3.904;2023-02-01T08:10:15;19.83;;;3.47;;
51006;SDS011;37034;47.886;-3.904;2023-02-01T08:12:41;18.23;;;3.72;;
51006;SDS011;37034;47.886;-3.904;2023-02-01T08:15:07;24.30;;;4.73;;
51006;SDS011;37034;47.886;-3.904;2023-02-01T08:17:33;26.60;;;4.13;;
51006;SDS011;37034;47.886;-3.904;2023-02-01T08:19:59;27.13;;;4.37;;
51006;SDS011;37034;47.886;-3.904;2023-02-01T08:22:24;24.93;;;4.27;;
51006;SDS011;37034;47.886;-3.904;2023-02-01T08:24:50;28.70;;;4.23;;
51006;SDS011;37034;47.886;-3.904;2023-02-01T08:27:16;24.73;;;5.00;;
51006;SDS011;37034;47.886;-3.904;2023-02-01T08:29:43;22.50;;;4.13;;
51006;SDS011;37034;47.886;-3.904;2023-02-01T08:32:08;30.60;;;4.50;;
51006;SDS011;37034;47.886;-3.904;2023-02-01T08:34:34;24.47;;;3.80;;
51006;SDS011;37034;47.886;-3.904;2023-02-01T08:37:00;28.83;;;5.13;;
51006;SDS011;37034;47.886;-3.904;2023-02-01T08:39:25;26.57;;;4.33;;
51006;SDS011;37034;47.886;-3.904;2023-02-01T08:41:51;22.00;;;4.72;;
51006;SDS011;37034;47.886;-3.904;2023-02-01T08:44:35;29.48;;;4.10;;
51006;SDS011;37034;47.886;-3.904;2023-02-01T08:47:01;23.77;;;4.87;;
51006;SDS011;37034;47.886;-3.904;2023-02-01T08:49:28;27.90;;;5.65;;
51006;SDS011;37034;47.886;-3.904;2023-02-01T08:51:54;23.42;;;5.50;;
51006;SDS011;37034;47.886;-3.904;2023-02-01T08:54:20;20.75;;;4.50;;
51006;SDS011;37034;47.886;-3.904;2023-02-01T08:56:46;20.98;;;5.47;;
51006;SDS011;37034;47.886;-3.904;2023-02-01T08:59:12;29.20;;;6.07;;
51006;SDS011;37034;47.886;-3.904;2023-02-01T09:01:38;28.33;;;5.73;;
51006;SDS011;37034;47.886;-3.904;2023-02-01T09:04:03;23.87;;;5.67;;
51006;SDS011;37034;47.886;-3.904;2023-02-01T09:06:29;25.17;;;5.50;;
51006;SDS011;37034;47.886;-3.904;2023-02-01T09:08:55;21.23;;;6.10;;
51006;SDS011;37034;47.886;-3.904;2023-02-01T09:11:21;27.50;;;6.20;;
51006;SDS011;37034;47.886;-3.904;2023-02-01T09:13:47;32.87;;;5.93;;
51006;SDS011;37034;47.886;-3.904;2023-02-01T09:16:13;25.50;;;5.93;;
51006;SDS011;37034;47.886;-3.904;2023-02-01T09:18:39;29.60;;;6.47;;
51006;SDS011;37034;47.886;-3.904;2023-02-01T09:21:05;21.47;;;6.00;;
51006;SDS011;37034;47.886;-3.904;2023-02-01T09:23:31;31.48;;;6.05;;
51006;SDS011;37034;47.886;-3.904;2023-02-01T09:26:00;30.33;;;7.43;;
51006;SDS011;37034;47.886;-3.904;2023-02-01T09:28:26;40.15;;;15.85;;
51006;SDS011;37034;47.886;-3.904;2023-02-01T09:30:58;42.40;;;14.73;;
51006;SDS011;37034;47.886;-3.904;2023-02-01T09:33:25;42.97;;;15.35;;
51006;SDS011;37034;47.886;-3.904;2023-02-01T09:35:55;43.25;;;13.02;;
51006;SDS011;37034;47.886;-3.904;2023-02-01T09:38:25;29.73;;;10.75;;
51006;SDS011;37034;47.886;-3.904;2023-02-01T09:51:22;28.83;;;5.88;;
51006;SDS011;37034;47.886;-3.904;2023-02-01T09:56:48;26.95;;;5.22;;
51006;SDS011;37034;47.886;-3.904;2023-02-01T09:59:38;25.20;;;3.92;;
51006;SDS011;37034;47.886;-3.904;2023-02-01T10:02:22;28.13;;;4.65;;
51006;SDS011;37034;47.886;-3.904;2023-02-01T10:04:53;26.50;;;3.95;;
51006;SDS011;37034;47.886;-3.904;2023-02-01T10:07:28;27.08;;;3.70;;
51006;SDS011;37034;47.886;-3.904;2023-02-01T10:19:06;24.67;;;4.28;;
51006;SDS011;37034;47.886;-3.904;2023-02-01T10:29:42;28.55;;;4.68;;
51006;SDS011;37034;47.886;-3.904;2023-02-01T10:32:29;28.38;;;6.00;;
51006;SDS011;37034;47.886;-3.904;2023-02-01T10:35:08;33.10;;;6.05;;
51006;SDS011;37034;47.886;-3.904;2023-02-01T10:37:42;36.92;;;6.22;;
51006;SDS011;37034;47.886;-3.904;2023-02-01T10:40:23;38.40;;;6.95;;
51006;SDS011;37034;47.886;-3.904;2023-02-01T10:42:57;34.42;;;5.72;;
51006;SDS011;37034;47.886;-3.904;2023-02-01T10:45:27;31.80;;;6.90;;
51006;SDS011;37034;47.886;-3.904;2023-02-01T10:47:55;29.63;;;5.75;;
51006;SDS011;37034;47.886;-3.904;2023-02-01T10:53:18;29.48;;;5.15;;
51006;SDS011;37034;47.886;-3.904;2023-02-01T10:55:49;30.25;;;4.82;;
51006;SDS011;37034;47.886;-3.904;2023-02-01T10:58:20;35.40;;;5.60;;
51006;SDS011;37034;47.886;-3.904;2023-02-01T11:11:52;29.40;;;5.50;;
51006;SDS011;37034;47.886;-3.904;2023-02-01T11:16:51;28.70;;;4.85;;
51006;SDS011;37034;47.886;-3.904;2023-02-01T11:19:20;30.33;;;5.45;;
51006;SDS011;37034;47.886;-3.904;2023-02-01T11:21:53;24.40;;;4.22;;
51006;SDS011;37034;47.886;-3.904;2023-02-01T11:24:29;28.88;;;3.65;;
51006;SDS011;37034;47.886;-3.904;2023-02-01T11:27:04;35.35;;;5.25;;
51006;SDS011;37034;47.886;-3.904;2023-02-01T11:29:41;36.22;;;5.82;;
51006;SDS011;37034;47.886;-3.904;2023-02-01T11:32:10;19.88;;;4.00;;
51006;SDS011;37034;47.886;-3.904;2023-02-01T11:37:21;22.30;;;3.65;;
51006;SDS011;37034;47.886;-3.904;2023-02-01T11:40:00;29.52;;;5.10;;
51006;SDS011;37034;47.886;-3.904;2023-02-01T11:42:27;20.65;;;4.03;;
51006;SDS011;37034;47.886;-3.904;2023-02-01T11:47:43;22.48;;;4.45;;
51006;SDS011;37034;47.886;-3.904;2023-02-01T11:50:18;22.45;;;3.58;;
51006;SDS011;37034;47.886;-3.904;2023-02-01T11:58:19;22.40;;;4.03;;
51006;SDS011;37034;47.886;-3.904;2023-02-01T12:01:27;21.25;;;4.13;;
51006;SDS011;37034;47.886;-3.904;2023-02-01T12:06:49;26.23;;;4.45;;
51006;SDS011;37034;47.886;-3.904;2023-02-01T12:26:26;27.70;;;5.18;;
51006;SDS011;37034;47.886;-3.904;2023-02-01T12:43:38;30.98;;;4.45;;
51006;SDS011;37034;47.886;-3.904;2023-02-01T12:46:08;24.80;;;4.07;;
51006;SDS011;37034;47.886;-3.904;2023-02-01T12:51:21;23.48;;;3.85;;
51006;SDS011;37034;47.886;-3.904;2023-02-01T12:54:01;24.77;;;4.05;;
51006;SDS011;37034;47.886;-3.904;2023-02-01T12:56:51;23.58;;;4.05;;
51006;SDS011;37034;47.886;-3.904;2023-02-01T12:59:42;29.70;;;4.72;;
51006;SDS011;37034;47.886;-3.904;2023-02-01T13:02:16;21.00;;;4.03;;
51006;SDS011;37034;47.886;-3.904;2023-02-01T13:07:43;17.30;;;2.53;;
51006;SDS011;37034;47.886;-3.904;2023-02-01T13:10:29;19.65;;;3.35;;
51006;SDS011;37034;47.886;-3.904;2023-02-01T13:18:37;19.58;;;2.80;;
51006;SDS011;37034;47.886;-3.904;2023-02-01T13:21:22;26.52;;;3.90;;
51006;SDS011;37034;47.886;-3.904;2023-02-01T13:23:52;23.38;;;3.65;;
51006;SDS011;37034;47.886;-3.904;2023-02-01T13:26:18;24.15;;;4.65;;
51006;SDS011;37034;47.886;-3.904;2023-02-01T13:28:45;20.02;;;4.15;;
51006;SDS011;37034;47.886;-3.904;2023-02-01T13:39:26;21.92;;;3.47;;
51006;SDS011;37034;47.886;-3.904;2023-02-01T13:42:03;21.98;;;3.78;;
51006;SDS011;37034;47.886;-3.904;2023-02-01T13:44:39;18.77;;;2.77;;
51006;SDS011;37034;47.886;-3.904;2023-02-01T13:47:43;20.13;;;2.50;;
51006;SDS011;37034;47.886;-3.904;2023-02-01T13:55:40;20.50;;;2.55;;
51006;SDS011;37034;47.886;-3.904;2023-02-01T14:01:31;22.75;;;3.40;;
51006;SDS011;37034;47.886;-3.904;2023-02-01T14:03:43;25.25;;;3.35;;
51006;SDS011;37034;47.886;-3.904;2023-02-01T14:06:15;24.58;;;4.32;;
51006;SDS011;37034;47.886;-3.904;2023-02-01T14:08:43;25.42;;;4.72;;
51006;SDS011;37034;47.886;-3.904;2023-02-01T14:16:44;21.50;;;3.38;;
51006;SDS011;37034;47.886;-3.904;2023-02-01T14:19:30;23.10;;;2.92;;
51006;SDS011;37034;47.886;-3.904;2023-02-01T14:22:01;20.63;;;4.07;;
51006;SDS011;37034;47.886;-3.904;2023-02-01T14:24:53;17.80;;;3.67;;
51006;SDS011;37034;47.886;-3.904;2023-02-01T14:27:28;17.55;;;3.03;;
51006;SDS011;37034;47.886;-3.904;2023-02-01T14:30:00;17.17;;;2.65;;
51006;SDS011;37034;47.886;-3.904;2023-02-01T14:32:30;24.95;;;5.43;;
51006;SDS011;37034;47.886;-3.904;2023-02-01T14:35:00;24.15;;;3.78;;
51006;SDS011;37034;47.886;-3.904;2023-02-01T14:37:32;22.02;;;3.30;;
51006;SDS011;37034;47.886;-3.904;2023-02-01T14:40:04;19.75;;;3.05;;
51006;SDS011;37034;47.886;-3.904;2023-02-01T14:42:47;22.13;;;3.60;;
51006;SDS011;37034;47.886;-3.904;2023-02-01T14:53:10;17.33;;;2.90;;
51006;SDS011;37034;47.886;-3.904;2023-02-01T14:55:59;23.10;;;4.07;;
51006;SDS011;37034;47.886;-3.904;2023-02-01T14:58:41;22.92;;;3.53;;
51006;SDS011;37034;47.886;-3.904;2023-02-01T15:01:24;21.48;;;4.28;;
51006;SDS011;37034;47.886;-3.904;2023-02-01T15:04:06;15.07;;;2.92;;
51006;SDS011;37034;47.886;-3.904;2023-02-01T15:06:44;26.60;;;3.83;;
51006;SDS011;37034;47.886;-3.904;2023-02-01T15:09:13;26.45;;;4.97;;
51006;SDS011;37034;47.886;-3.904;2023-02-01T15:15:03;21.63;;;3.92;;
51006;SDS011;37034;47.886;-3.904;2023-02-01T15:17:37;19.13;;;4.20;;
51006;SDS011;37034;47.886;-3.904;2023-02-01T15:22:39;21.88;;;3.50;;
51006;SDS011;37034;47.886;-3.904;2023-02-01T15:25:06;23.40;;;6.07;;
51006;SDS011;37034;47.886;-3.904;2023-02-01T15:30:12;31.70;;;5.20;;
51006;SDS011;37034;47.886;-3.904;2023-02-01T15:32:52;28.30;;;4.50;;
51006;SDS011;37034;47.886;-3.904;2023-02-01T15:35:50;20.00;;;4.05;;
51006;SDS011;37034;47.886;-3.904;2023-02-01T15:38:24;21.33;;;4.85;;
51006;SDS011;37034;47.886;-3.904;2023-02-01T15:43:29;22.70;;;3.60;;
51006;SDS011;37034;47.886;-3.904;2023-02-01T15:45:58;24.75;;;3.00;;
51006;SDS011;37034;47.886;-3.904;2023-02-01T15:48:27;18.38;;;3.42;;
51006;SDS011;37034;47.886;-3.904;2023-02-01T15:51:00;25.50;;;5.32;;
51006;SDS011;37034;47.886;-3.904;2023-02-01T15:53:26;21.67;;;3.97;;
51006;SDS011;37034;47.886;-3.904;2023-02-01T15:55:57;20.00;;;3.47;;
51006;SDS011;37034;47.886;-3.904;2023-02-01T15:58:25;21.40;;;3.00;;
51006;SDS011;37034;47.886;-3.904;2023-02-01T16:00:55;21.25;;;3.38;;
51006;SDS011;37034;47.886;-3.904;2023-02-01T16:05:59;19.17;;;3.38;;
51006;SDS011;37034;47.886;-3.904;2023-02-01T16:08:26;19.40;;;4.07;;
51006;SDS011;37034;47.886;-3.904;2023-02-01T16:10:54;17.90;;;2.95;;
51006;SDS011;37034;47.886;-3.904;2023-02-01T16:13:27;16.40;;;3.30;;
51006;SDS011;37034;47.886;-3.904;2023-02-01T16:15:52;21.63;;;3.90;;
51006;SDS011;37034;47.886;-3.904;2023-02-01T16:18:18;23.08;;;3.15;;
51006;SDS011;37034;47.886;-3.904;2023-02-01T16:20:44;17.40;;;3.20;;
51006;SDS011;37034;47.886;-3.904;2023-02-01T16:23:12;23.63;;;3.15;;
51006;SDS011;37034;47.886;-3.904;2023-02-01T16:25:38;18.27;;;3.13;;
51006;SDS011;37034;47.886;-3.904;2023-02-01T16:28:05;28.38;;;5.72;;
51006;SDS011;37034;47.886;-3.904;2023-02-01T16:30:30;29.55;;;8.35;;
51006;SDS011;37034;47.886;-3.904;2023-02-01T16:32:58;24.08;;;3.15;;
51006;SDS011;37034;47.886;-3.904;2023-02-01T16:35:31;22.02;;;3.00;;
51006;SDS011;37034;47.886;-3.904;2023-02-01T16:38:03;21.15;;;3.25;;
51006;SDS011;37034;47.886;-3.904;2023-02-01T16:40:37;17.40;;;3.88;;
51006;SDS011;37034;47.886;-3.904;2023-02-01T16:43:05;19.85;;;2.85;;
51006;SDS011;37034;47.886;-3.904;2023-02-01T16:45:41;17.40;;;2.88;;
51006;SDS011;37034;47.886;-3.904;2023-02-01T16:48:10;21.35;;;3.67;;
51006;SDS011;37034;47.886;-3.904;2023-02-01T16:50:42;18.17;;;3.00;;
51006;SDS011;37034;47.886;-3.904;2023-02-01T16:53:10;28.23;;;6.05;;
51006;SDS011;37034;47.886;-3.904;2023-02-01T16:55:40;30.25;;;12.55;;
51006;SDS011;37034;47.886;-3.904;2023-02-01T16:58:08;25.40;;;7.05;;
51006;SDS011;37034;47.886;-3.904;2023-02-01T17:00:34;22.23;;;5.53;;
51006;SDS011;37034;47.886;-3.904;2023-02-01T17:03:03;27.73;;;6.78;;
51006;SDS011;37034;47.886;-3.904;2023-02-01T17:05:35;27.73;;;9.15;;
51006;SDS011;37034;47.886;-3.904;2023-02-01T17:08:04;18.13;;;4.22;;
51006;SDS011;37034;47.886;-3.904;2023-02-01T17:10:31;19.80;;;3.85;;
51006;SDS011;37034;47.886;-3.904;2023-02-01T17:12:57;20.10;;;4.47;;
51006;SDS011;37034;47.886;-3.904;2023-02-01T17:15:27;16.33;;;3.87;;
51006;SDS011;37034;47.886;-3.904;2023-02-01T17:17:58;21.52;;;3.28;;
51006;SDS011;37034;47.886;-3.904;2023-02-01T17:20:29;17.85;;;2.92;;
51006;SDS011;37034;47.886;-3.904;2023-02-01T17:23:03;19.42;;;4.00;;
51006;SDS011;37034;47.886;-3.904;2023-02-01T17:25:29;20.58;;;3.67;;
51006;SDS011;37034;47.886;-3.904;2023-02-01T17:30:21;23.98;;;6.63;;
51006;SDS011;37034;47.886;-3.904;2023-02-01T17:32:47;18.03;;;4.93;;
51006;SDS011;37034;47.886;-3.904;2023-02-01T17:35:17;18.47;;;3.20;;
51006;SDS011;37034;47.886;-3.904;2023-02-01T17:40:49;17.35;;;3.72;;
51006;SDS011;37034;47.886;-3.904;2023-02-01T17:43:17;17.33;;;2.83;;
51006;SDS011;37034;47.886;-3.904;2023-02-01T17:48:47;18.15;;;3.97;;
51006;SDS011;37034;47.886;-3.904;2023-02-01T17:51:24;16.15;;;3.63;;
51006;SDS011;37034;47.886;-3.904;2023-02-01T17:53:54;17.30;;;3.97;;
51006;SDS011;37034;47.886;-3.904;2023-02-01T17:56:20;21.02;;;5.45;;
51006;SDS011;37034;47.886;-3.904;2023-02-01T17:58:53;23.80;;;6.78;;
51006;SDS011;37034;47.886;-3.904;2023-02-01T18:01:22;18.02;;;5.03;;
51006;SDS011;37034;47.886;-3.904;2023-02-01T18:03:48;21.27;;;4.57;;
51006;SDS011;37034;47.886;-3.904;2023-02-01T18:06:16;21.25;;;5.93;;